Aviation Digital Data Service (ADDS)

Output produced by METARs form (1405 UTC 01 September 2015)
found at http://aviationweather.gov/adds/metars/
 
KRWI 011136Z 0112/0212 00000KT 6SM BR OVC007 
     TEMPO 0112/0113 5SM BR 
     FM011600 02005KT P6SM BKN020 
     FM011900 VRB03KT P6SM VCSH BKN035 
     FM012300 VRB03KT P6SM SCT035